sensor_id;sensor_type;location;lat;lon;timestamp;P1;durP1;ratioP1;P2;durP2;ratioP2
80270;SDS011;69573;45.560;10.200;2023-05-14T00:02:02;1.60;;;1.50;;
80270;SDS011;69573;45.560;10.200;2023-05-14T00:04:29;2.25;;;1.45;;
80270;SDS011;69573;45.560;10.200;2023-05-14T00:06:55;2.13;;;1.33;;
80270;SDS011;69573;45.560;10.200;2023-05-14T00:09:21;1.50;;;1.40;;
80270;SDS011;69573;45.560;10.200;2023-05-14T00:11:47;1.77;;;1.40;;
80270;SDS011;69573;45.560;10.200;2023-05-14T00:14:13;6.10;;;1.67;;
80270;SDS011;69573;45.560;10.200;2023-05-14T00:16:40;2.00;;;1.52;;
80270;SDS011;69573;45.560;10.200;2023-05-14T00:19:06;2.20;;;1.52;;
80270;SDS011;69573;45.560;10.200;2023-05-14T00:21:33;2.63;;;1.95;;
80270;SDS011;69573;45.560;10.200;2023-05-14T00:24:00;1.80;;;1.70;;
80270;SDS011;69573;45.560;10.200;2023-05-14T00:26:26;1.67;;;1.58;;
80270;SDS011;69573;45.560;10.200;2023-05-14T00:28:52;2.50;;;1.88;;
80270;SDS011;69573;45.560;10.200;2023-05-14T00:31:19;2.00;;;1.90;;
80270;SDS011;69573;45.560;10.200;2023-05-14T00:33:45;2.25;;;2.05;;
80270;SDS011;69573;45.560;10.200;2023-05-14T00:36:12;2.25;;;1.90;;
80270;SDS011;69573;45.560;10.200;2023-05-14T00:38:38;2.00;;;1.80;;
80270;SDS011;69573;45.560;10.200;2023-05-14T00:41:08;2.20;;;2.00;;
80270;SDS011;69573;45.560;10.200;2023-05-14T00:43:34;2.90;;;2.28;;
80270;SDS011;69573;45.560;10.200;2023-05-14T00:46:01;2.70;;;2.17;;
80270;SDS011;69573;45.560;10.200;2023-05-14T00:48:27;2.00;;;1.90;;
80270;SDS011;69573;45.560;10.200;2023-05-14T00:50:54;2.40;;;2.08;;
80270;SDS011;69573;45.560;10.200;2023-05-14T00:53:20;3.05;;;2.40;;
80270;SDS011;69573;45.560;10.200;2023-05-14T00:55:47;2.47;;;2.28;;
80270;SDS011;69573;45.560;10.200;2023-05-14T00:58:14;3.97;;;1.98;;
80270;SDS011;69573;45.560;10.200;2023-05-14T01:00:42;2.55;;;2.05;;
80270;SDS011;69573;45.560;10.200;2023-05-14T01:03:08;3.00;;;1.83;;
80270;SDS011;69573;45.560;10.200;2023-05-14T01:10:55;2.60;;;2.30;;
80270;SDS011;69573;45.560;10.200;2023-05-14T01:13:33;2.25;;;2.15;;
80270;SDS011;69573;45.560;10.200;2023-05-14T01:16:01;2.03;;;1.90;;
80270;SDS011;69573;45.560;10.200;2023-05-14T01:18:29;3.40;;;2.72;;
80270;SDS011;69573;45.560;10.200;2023-05-14T01:20:56;3.42;;;2.03;;
80270;SDS011;69573;45.560;10.200;2023-05-14T01:23:23;2.10;;;2.00;;
80270;SDS011;69573;45.560;10.200;2023-05-14T01:25:49;2.20;;;2.00;;
80270;SDS011;69573;45.560;10.200;2023-05-14T01:28:16;3.20;;;2.00;;
80270;SDS011;69573;45.560;10.200;2023-05-14T01:30:44;2.03;;;1.92;;
80270;SDS011;69573;45.560;10.200;2023-05-14T01:33:12;2.20;;;2.00;;
80270;SDS011;69573;45.560;10.200;2023-05-14T01:35:38;1.88;;;1.77;;
80270;SDS011;69573;45.560;10.200;2023-05-14T01:38:09;2.45;;;1.77;;
80270;SDS011;69573;45.560;10.200;2023-05-14T01:40:36;2.30;;;2.10;;
80270;SDS011;69573;45.560;10.200;2023-05-14T01:43:04;2.72;;;2.00;;
80270;SDS011;69573;45.560;10.200;2023-05-14T01:45:30;1.88;;;1.77;;
80270;SDS011;69573;45.560;10.200;2023-05-14T01:47:56;2.78;;;1.98;;
80270;SDS011;69573;45.560;10.200;2023-05-14T01:50:23;3.00;;;1.60;;
80270;SDS011;69573;45.560;10.200;2023-05-14T01:52:49;2.40;;;1.50;;
80270;SDS011;69573;45.560;10.200;2023-05-14T01:55:17;2.25;;;1.65;;
80270;SDS011;69573;45.560;10.200;2023-05-14T01:57:43;2.05;;;1.67;;
80270;SDS011;69573;45.560;10.200;2023-05-14T02:00:10;3.47;;;1.60;;
80270;SDS011;69573;45.560;10.200;2023-05-14T02:02:36;1.70;;;1.60;;
80270;SDS011;69573;45.560;10.200;2023-05-14T02:05:03;1.98;;;1.70;;
80270;SDS011;69573;45.560;10.200;2023-05-14T02:07:31;1.60;;;1.50;;
80270;SDS011;69573;45.560;10.200;2023-05-14T02:09:57;1.63;;;1.52;;
80270;SDS011;69573;45.560;10.200;2023-05-14T02:12:24;6.60;;;1.70;;
80270;SDS011;69573;45.560;10.200;2023-05-14T02:14:51;1.50;;;1.40;;
80270;SDS011;69573;45.560;10.200;2023-05-14T02:17:18;3.13;;;1.65;;
80270;SDS011;69573;45.560;10.200;2023-05-14T02:19:45;1.60;;;1.50;;
80270;SDS011;69573;45.560;10.200;2023-05-14T02:22:11;1.67;;;1.58;;
80270;SDS011;69573;45.560;10.200;2023-05-14T02:24:38;1.35;;;1.25;;
80270;SDS011;69573;45.560;10.200;2023-05-14T02:27:05;3.90;;;1.88;;
80270;SDS011;69573;45.560;10.200;2023-05-14T02:29:32;1.60;;;1.50;;
80270;SDS011;69573;45.560;10.200;2023-05-14T02:31:58;1.50;;;1.40;;
80270;SDS011;69573;45.560;10.200;2023-05-14T02:34:29;3.53;;;1.52;;
80270;SDS011;69573;45.560;10.200;2023-05-14T02:36:57;2.15;;;1.40;;
80270;SDS011;69573;45.560;10.200;2023-05-14T02:39:24;1.60;;;1.50;;
80270;SDS011;69573;45.560;10.200;2023-05-14T02:41:53;1.50;;;1.40;;
80270;SDS011;69573;45.560;10.200;2023-05-14T02:44:20;3.45;;;1.73;;
80270;SDS011;69573;45.560;10.200;2023-05-14T02:46:47;1.75;;;1.52;;
80270;SDS011;69573;45.560;10.200;2023-05-14T02:49:13;2.88;;;1.50;;
80270;SDS011;69573;45.560;10.200;2023-05-14T02:51:39;1.20;;;1.20;;
80270;SDS011;69573;45.560;10.200;2023-05-14T02:54:06;1.20;;;1.10;;
80270;SDS011;69573;45.560;10.200;2023-05-14T02:56:32;1.55;;;1.33;;
80270;SDS011;69573;45.560;10.200;2023-05-14T02:58:59;1.95;;;1.40;;
80270;SDS011;69573;45.560;10.200;2023-05-14T03:01:25;1.67;;;1.33;;
80270;SDS011;69573;45.560;10.200;2023-05-14T03:03:51;2.00;;;1.38;;
80270;SDS011;69573;45.560;10.200;2023-05-14T03:06:18;1.40;;;1.30;;
80270;SDS011;69573;45.560;10.200;2023-05-14T03:08:44;1.30;;;1.20;;
80270;SDS011;69573;45.560;10.200;2023-05-14T03:11:10;3.22;;;1.30;;
80270;SDS011;69573;45.560;10.200;2023-05-14T03:13:37;2.17;;;1.35;;
80270;SDS011;69573;45.560;10.200;2023-05-14T03:16:03;1.10;;;1.10;;
80270;SDS011;69573;45.560;10.200;2023-05-14T03:18:30;1.30;;;1.20;;
80270;SDS011;69573;45.560;10.200;2023-05-14T03:20:57;1.58;;;1.48;;
80270;SDS011;69573;45.560;10.200;2023-05-14T03:23:23;1.40;;;1.30;;
80270;SDS011;69573;45.560;10.200;2023-05-14T03:25:49;1.67;;;1.58;;
80270;SDS011;69573;45.560;10.200;2023-05-14T03:28:16;2.85;;;1.67;;
80270;SDS011;69573;45.560;10.200;2023-05-14T03:30:42;1.17;;;1.13;;
80270;SDS011;69573;45.560;10.200;2023-05-14T03:33:09;1.00;;;1.00;;
80270;SDS011;69573;45.560;10.200;2023-05-14T03:35:35;2.28;;;1.50;;
80270;SDS011;69573;45.560;10.200;2023-05-14T03:38:01;1.30;;;1.20;;
80270;SDS011;69573;45.560;10.200;2023-05-14T03:40:28;1.35;;;1.20;;
80270;SDS011;69573;45.560;10.200;2023-05-14T03:42:54;4.10;;;1.60;;
80270;SDS011;69573;45.560;10.200;2023-05-14T03:45:20;1.00;;;1.00;;
80270;SDS011;69573;45.560;10.200;2023-05-14T03:47:47;1.80;;;1.40;;
80270;SDS011;69573;45.560;10.200;2023-05-14T03:50:14;1.23;;;1.13;;
80270;SDS011;69573;45.560;10.200;2023-05-14T03:52:40;1.77;;;1.15;;
80270;SDS011;69573;45.560;10.200;2023-05-14T03:55:07;1.60;;;1.50;;
80270;SDS011;69573;45.560;10.200;2023-05-14T03:57:33;1.90;;;1.40;;
80270;SDS011;69573;45.560;10.200;2023-05-14T04:00:00;1.42;;;1.33;;
80270;SDS011;69573;45.560;10.200;2023-05-14T04:02:27;1.17;;;1.17;;
80270;SDS011;69573;45.560;10.200;2023-05-14T04:04:53;2.67;;;1.30;;
80270;SDS011;69573;45.560;10.200;2023-05-14T04:07:20;2.85;;;1.27;;
80270;SDS011;69573;45.560;10.200;2023-05-14T04:09:46;1.20;;;1.20;;
80270;SDS011;69573;45.560;10.200;2023-05-14T04:12:12;1.90;;;1.40;;
80270;SDS011;69573;45.560;10.200;2023-05-14T04:14:39;1.45;;;1.35;;
80270;SDS011;69573;45.560;10.200;2023-05-14T04:17:06;2.45;;;1.50;;
80270;SDS011;69573;45.560;10.200;2023-05-14T04:19:32;1.65;;;1.55;;
80270;SDS011;69573;45.560;10.200;2023-05-14T04:21:58;1.50;;;1.40;;
80270;SDS011;69573;45.560;10.200;2023-05-14T04:24:24;1.77;;;1.40;;
80270;SDS011;69573;45.560;10.200;2023-05-14T04:26:51;2.30;;;1.40;;
80270;SDS011;69573;45.560;10.200;2023-05-14T04:29:17;1.40;;;1.30;;
80270;SDS011;69573;45.560;10.200;2023-05-14T04:31:44;2.88;;;1.30;;
80270;SDS011;69573;45.560;10.200;2023-05-14T04:34:10;2.17;;;1.08;;
80270;SDS011;69573;45.560;10.200;2023-05-14T04:36:37;1.13;;;1.13;;
80270;SDS011;69573;45.560;10.200;2023-05-14T04:39:04;1.20;;;1.00;;
80270;SDS011;69573;45.560;10.200;2023-05-14T04:41:33;1.00;;;1.00;;
80270;SDS011;69573;45.560;10.200;2023-05-14T04:44:01;0.88;;;0.88;;
80270;SDS011;69573;45.560;10.200;2023-05-14T04:46:28;1.13;;;1.10;;
80270;SDS011;69573;45.560;10.200;2023-05-14T04:48:54;2.50;;;1.10;;
80270;SDS011;69573;45.560;10.200;2023-05-14T04:51:21;0.80;;;0.80;;
80270;SDS011;69573;45.560;10.200;2023-05-14T04:53:48;1.00;;;1.00;;
80270;SDS011;69573;45.560;10.200;2023-05-14T04:56:14;1.52;;;1.00;;
80270;SDS011;69573;45.560;10.200;2023-05-14T04:58:40;1.05;;;1.05;;
80270;SDS011;69573;45.560;10.200;2023-05-14T05:01:07;1.23;;;1.13;;
80270;SDS011;69573;45.560;10.200;2023-05-14T05:03:34;1.15;;;1.13;;
80270;SDS011;69573;45.560;10.200;2023-05-14T05:06:00;1.42;;;1.20;;
80270;SDS011;69573;45.560;10.200;2023-05-14T05:08:27;1.25;;;1.25;;
80270;SDS011;69573;45.560;10.200;2023-05-14T05:10:53;1.20;;;1.10;;
80270;SDS011;69573;45.560;10.200;2023-05-14T05:13:20;1.48;;;1.10;;
80270;SDS011;69573;45.560;10.200;2023-05-14T05:15:46;1.33;;;1.23;;
80270;SDS011;69573;45.560;10.200;2023-05-14T05:18:13;1.40;;;1.15;;
80270;SDS011;69573;45.560;10.200;2023-05-14T05:20:39;1.05;;;0.90;;
80270;SDS011;69573;45.560;10.200;2023-05-14T05:23:05;0.95;;;0.95;;
80270;SDS011;69573;45.560;10.200;2023-05-14T05:25:32;1.00;;;1.00;;
80270;SDS011;69573;45.560;10.200;2023-05-14T05:27:59;1.75;;;1.10;;
80270;SDS011;69573;45.560;10.200;2023-05-14T05:30:25;2.03;;;1.20;;
80270;SDS011;69573;45.560;10.200;2023-05-14T05:32:52;1.42;;;1.33;;
80270;SDS011;69573;45.560;10.200;2023-05-14T05:35:21;1.10;;;1.10;;
80270;SDS011;69573;45.560;10.200;2023-05-14T05:37:47;3.75;;;1.10;;
80270;SDS011;69573;45.560;10.200;2023-05-14T05:40:17;1.58;;;1.10;;
80270;SDS011;69573;45.560;10.200;2023-05-14T05:42:43;1.00;;;1.00;;
80270;SDS011;69573;45.560;10.200;2023-05-14T05:45:09;1.02;;;1.02;;
80270;SDS011;69573;45.560;10.200;2023-05-14T05:47:35;1.20;;;1.10;;
80270;SDS011;69573;45.560;10.200;2023-05-14T05:50:01;1.30;;;1.20;;
80270;SDS011;69573;45.560;10.200;2023-05-14T05:52:27;1.38;;;1.10;;
80270;SDS011;69573;45.560;10.200;2023-05-14T05:54:54;1.35;;;1.25;;
80270;SDS011;69573;45.560;10.200;2023-05-14T05:57:21;1.30;;;1.30;;
80270;SDS011;69573;45.560;10.200;2023-05-14T05:59:48;1.60;;;1.50;;
80270;SDS011;69573;45.560;10.200;2023-05-14T06:02:14;2.17;;;1.10;;
80270;SDS011;69573;45.560;10.200;2023-05-14T06:04:40;1.45;;;1.35;;
80270;SDS011;69573;45.560;10.200;2023-05-14T06:07:06;1.58;;;1.48;;
80270;SDS011;69573;45.560;10.200;2023-05-14T06:09:33;2.40;;;1.30;;
80270;SDS011;69573;45.560;10.200;2023-05-14T06:12:00;1.63;;;1.40;;
80270;SDS011;69573;45.560;10.200;2023-05-14T06:14:26;1.20;;;1.20;;
80270;SDS011;69573;45.560;10.200;2023-05-14T06:16:52;1.38;;;1.33;;
80270;SDS011;69573;45.560;10.200;2023-05-14T06:19:19;2.03;;;1.35;;
80270;SDS011;69573;45.560;10.200;2023-05-14T06:21:51;1.88;;;1.52;;
80270;SDS011;69573;45.560;10.200;2023-05-14T06:24:18;1.40;;;1.30;;
80270;SDS011;69573;45.560;10.200;2023-05-14T06:26:44;1.58;;;1.33;;
80270;SDS011;69573;45.560;10.200;2023-05-14T06:29:10;1.63;;;1.52;;
80270;SDS011;69573;45.560;10.200;2023-05-14T06:31:36;1.38;;;1.27;;
80270;SDS011;69573;45.560;10.200;2023-05-14T06:34:03;1.38;;;1.27;;
80270;SDS011;69573;45.560;10.200;2023-05-14T06:36:29;1.40;;;1.25;;
80270;SDS011;69573;45.560;10.200;2023-05-14T06:38:56;1.20;;;1.20;;
80270;SDS011;69573;45.560;10.200;2023-05-14T06:41:22;1.58;;;1.30;;
80270;SDS011;69573;45.560;10.200;2023-05-14T06:43:48;1.40;;;1.30;;
80270;SDS011;69573;45.560;10.200;2023-05-14T06:46:15;1.60;;;1.50;;
80270;SDS011;69573;45.560;10.200;2023-05-14T06:48:45;1.73;;;1.48;;
80270;SDS011;69573;45.560;10.200;2023-05-14T06:51:12;1.73;;;1.63;;
80270;SDS011;69573;45.560;10.200;2023-05-14T06:53:38;2.20;;;2.00;;
80270;SDS011;69573;45.560;10.200;2023-05-14T06:56:05;2.03;;;1.92;;
80270;SDS011;69573;45.560;10.200;2023-05-14T06:58:31;2.45;;;2.25;;
80270;SDS011;69573;45.560;10.200;2023-05-14T07:00:58;2.42;;;2.17;;
80270;SDS011;69573;45.560;10.200;2023-05-14T07:03:25;2.75;;;2.55;;
80270;SDS011;69573;45.560;10.200;2023-05-14T07:05:51;4.45;;;3.25;;
80270;SDS011;69573;45.560;10.200;2023-05-14T07:08:18;3.30;;;2.80;;
80270;SDS011;69573;45.560;10.200;2023-05-14T07:10:44;3.22;;;2.85;;
80270;SDS011;69573;45.560;10.200;2023-05-14T07:13:11;3.17;;;2.80;;
80270;SDS011;69573;45.560;10.200;2023-05-14T07:15:37;5.90;;;3.50;;
80270;SDS011;69573;45.560;10.200;2023-05-14T07:18:03;5.40;;;3.58;;
80270;SDS011;69573;45.560;10.200;2023-05-14T07:20:29;4.13;;;3.63;;
80270;SDS011;69573;45.560;10.200;2023-05-14T07:22:55;4.97;;;3.90;;
80270;SDS011;69573;45.560;10.200;2023-05-14T07:25:22;4.82;;;4.18;;
80270;SDS011;69573;45.560;10.200;2023-05-14T07:27:49;3.63;;;3.33;;
80270;SDS011;69573;45.560;10.200;2023-05-14T07:30:16;4.65;;;3.10;;
80270;SDS011;69573;45.560;10.200;2023-05-14T07:32:42;2.70;;;2.50;;
80270;SDS011;69573;45.560;10.200;2023-05-14T07:35:08;2.90;;;2.70;;
80270;SDS011;69573;45.560;10.200;2023-05-14T07:37:36;2.63;;;2.42;;
80270;SDS011;69573;45.560;10.200;2023-05-14T07:40:02;3.97;;;2.55;;
80270;SDS011;69573;45.560;10.200;2023-05-14T07:42:29;2.63;;;2.38;;
80270;SDS011;69573;45.560;10.200;2023-05-14T07:44:55;3.42;;;2.55;;
80270;SDS011;69573;45.560;10.200;2023-05-14T07:47:21;2.58;;;2.38;;
80270;SDS011;69573;45.560;10.200;2023-05-14T07:49:48;2.47;;;2.28;;
80270;SDS011;69573;45.560;10.200;2023-05-14T07:52:14;3.03;;;2.60;;
80270;SDS011;69573;45.560;10.200;2023-05-14T07:54:41;2.40;;;2.20;;
80270;SDS011;69573;45.560;10.200;2023-05-14T07:57:08;3.83;;;2.40;;
80270;SDS011;69573;45.560;10.200;2023-05-14T07:59:34;2.45;;;2.33;;
80270;SDS011;69573;45.560;10.200;2023-05-14T08:02:01;2.45;;;2.25;;
80270;SDS011;69573;45.560;10.200;2023-05-14T08:04:27;2.30;;;2.10;;
80270;SDS011;69573;45.560;10.200;2023-05-14T08:06:54;4.60;;;2.53;;
80270;SDS011;69573;45.560;10.200;2023-05-14T08:09:22;2.45;;;2.25;;
80270;SDS011;69573;45.560;10.200;2023-05-14T08:11:48;3.63;;;2.00;;
80270;SDS011;69573;45.560;10.200;2023-05-14T08:14:15;2.00;;;1.90;;
80270;SDS011;69573;45.560;10.200;2023-05-14T08:16:41;2.08;;;1.98;;
80270;SDS011;69573;45.560;10.200;2023-05-14T08:19:08;2.33;;;1.85;;
80270;SDS011;69573;45.560;10.200;2023-05-14T08:21:35;1.50;;;1.40;;
80270;SDS011;69573;45.560;10.200;2023-05-14T08:24:01;3.45;;;1.20;;
80270;SDS011;69573;45.560;10.200;2023-05-14T08:26:27;1.70;;;1.60;;
80270;SDS011;69573;45.560;10.200;2023-05-14T08:28:53;2.13;;;2.00;;
80270;SDS011;69573;45.560;10.200;2023-05-14T08:31:20;3.17;;;2.40;;
80270;SDS011;69573;45.560;10.200;2023-05-14T08:33:46;2.25;;;1.80;;
80270;SDS011;69573;45.560;10.200;2023-05-14T08:36:13;2.15;;;1.95;;
80270;SDS011;69573;45.560;10.200;2023-05-14T08:38:39;2.15;;;2.00;;
80270;SDS011;69573;45.560;10.200;2023-05-14T08:41:06;2.50;;;2.30;;
80270;SDS011;69573;45.560;10.200;2023-05-14T08:46:18;2.15;;;1.83;;
80270;SDS011;69573;45.560;10.200;2023-05-14T08:48:50;2.17;;;1.90;;
80270;SDS011;69573;45.560;10.200;2023-05-14T08:51:20;2.45;;;2.25;;
80270;SDS011;69573;45.560;10.200;2023-05-14T08:53:46;2.05;;;1.95;;
80270;SDS011;69573;45.560;10.200;2023-05-14T08:56:13;1.90;;;1.80;;
80270;SDS011;69573;45.560;10.200;2023-05-14T08:58:41;1.95;;;1.85;;
80270;SDS011;69573;45.560;10.200;2023-05-14T09:01:08;2.58;;;2.00;;
80270;SDS011;69573;45.560;10.200;2023-05-14T09:03:34;2.15;;;1.95;;
80270;SDS011;69573;45.560;10.200;2023-05-14T09:06:01;1.88;;;1.73;;
80270;SDS011;69573;45.560;10.200;2023-05-14T09:08:28;1.90;;;1.80;;
80270;SDS011;69573;45.560;10.200;2023-05-14T09:10:54;2.17;;;1.90;;
80270;SDS011;69573;45.560;10.200;2023-05-14T09:13:20;1.52;;;1.45;;
80270;SDS011;69573;45.560;10.200;2023-05-14T09:15:46;1.60;;;1.50;;
80270;SDS011;69573;45.560;10.200;2023-05-14T09:18:15;2.05;;;1.85;;
80270;SDS011;69573;45.560;10.200;2023-05-14T09:20:41;1.58;;;1.48;;
80270;SDS011;69573;45.560;10.200;2023-05-14T09:23:08;2.20;;;2.00;;
80270;SDS011;69573;45.560;10.200;2023-05-14T09:25:34;1.80;;;1.70;;
80270;SDS011;69573;45.560;10.200;2023-05-14T09:28:04;2.22;;;2.10;;
80270;SDS011;69573;45.560;10.200;2023-05-14T09:30:30;2.00;;;1.90;;
80270;SDS011;69573;45.560;10.200;2023-05-14T09:32:59;2.17;;;1.95;;
80270;SDS011;69573;45.560;10.200;2023-05-14T09:35:25;2.67;;;2.47;;
80270;SDS011;69573;45.560;10.200;2023-05-14T09:37:53;2.40;;;2.20;;
80270;SDS011;69573;45.560;10.200;2023-05-14T09:40:21;2.50;;;2.30;;
80270;SDS011;69573;45.560;10.200;2023-05-14T09:42:47;2.47;;;2.28;;
80270;SDS011;69573;45.560;10.200;2023-05-14T09:45:14;3.00;;;2.80;;
80270;SDS011;69573;45.560;10.200;2023-05-14T09:47:40;2.58;;;2.38;;
80270;SDS011;69573;45.560;10.200;2023-05-14T09:50:06;3.30;;;2.08;;
80270;SDS011;69573;45.560;10.200;2023-05-14T09:52:33;2.17;;;2.08;;
80270;SDS011;69573;45.560;10.200;2023-05-14T09:54:59;4.93;;;4.43;;
80270;SDS011;69573;45.560;10.200;2023-05-14T09:57:26;3.95;;;2.90;;
80270;SDS011;69573;45.560;10.200;2023-05-14T09:59:52;2.90;;;2.40;;
80270;SDS011;69573;45.560;10.200;2023-05-14T10:04:46;3.25;;;2.80;;
80270;SDS011;69573;45.560;10.200;2023-05-14T10:07:13;3.33;;;2.53;;
80270;SDS011;69573;45.560;10.200;2023-05-14T10:09:39;3.00;;;2.80;;
80270;SDS011;69573;45.560;10.200;2023-05-14T10:12:06;3.17;;;2.42;;
80270;SDS011;69573;45.560;10.200;2023-05-14T10:14:37;2.63;;;2.53;;
80270;SDS011;69573;45.560;10.200;2023-05-14T10:17:05;3.33;;;3.03;;
80270;SDS011;69573;45.560;10.200;2023-05-14T10:19:33;2.78;;;2.53;;
80270;SDS011;69573;45.560;10.200;2023-05-14T10:22:04;3.42;;;2.90;;
80270;SDS011;69573;45.560;10.200;2023-05-14T10:24:32;2.95;;;2.75;;
80270;SDS011;69573;45.560;10.200;2023-05-14T10:26:58;3.67;;;2.78;;
80270;SDS011;69573;45.560;10.200;2023-05-14T10:29:34;2.60;;;2.40;;
80270;SDS011;69573;45.560;10.200;2023-05-14T10:32:04;4.05;;;2.58;;
80270;SDS011;69573;45.560;10.200;2023-05-14T10:37:47;2.15;;;2.05;;
80270;SDS011;69573;45.560;10.200;2023-05-14T10:39:58;2.33;;;2.13;;
80270;SDS011;69573;45.560;10.200;2023-05-14T10:42:30;2.97;;;2.28;;
80270;SDS011;69573;45.560;10.200;2023-05-14T10:45:04;2.15;;;2.05;;
80270;SDS011;69573;45.560;10.200;2023-05-14T10:47:32;3.28;;;2.72;;
80270;SDS011;69573;45.560;10.200;2023-05-14T10:50:00;1.80;;;1.70;;
80270;SDS011;69573;45.560;10.200;2023-05-14T10:52:27;2.10;;;2.00;;
80270;SDS011;69573;45.560;10.200;2023-05-14T10:57:21;2.95;;;1.95;;
80270;SDS011;69573;45.560;10.200;2023-05-14T10:59:48;2.60;;;2.30;;
80270;SDS011;69573;45.560;10.200;2023-05-14T11:02:20;2.00;;;1.90;;
80270;SDS011;69573;45.560;10.200;2023-05-14T11:04:57;1.92;;;1.80;;
80270;SDS011;69573;45.560;10.200;2023-05-14T11:07:26;2.03;;;1.70;;
80270;SDS011;69573;45.560;10.200;2023-05-14T11:09:53;2.80;;;1.98;;
80270;SDS011;69573;45.560;10.200;2023-05-14T11:12:22;1.70;;;1.60;;
80270;SDS011;69573;45.560;10.200;2023-05-14T11:14:48;2.15;;;1.92;;
80270;SDS011;69573;45.560;10.200;2023-05-14T11:17:15;2.42;;;1.77;;
80270;SDS011;69573;45.560;10.200;2023-05-14T11:19:42;1.45;;;1.35;;
80270;SDS011;69573;45.560;10.200;2023-05-14T11:22:10;1.30;;;1.20;;
80270;SDS011;69573;45.560;10.200;2023-05-14T11:24:39;1.60;;;1.50;;
80270;SDS011;69573;45.560;10.200;2023-05-14T11:27:11;1.30;;;1.20;;
80270;SDS011;69573;45.560;10.200;2023-05-14T11:29:38;1.50;;;1.40;;
80270;SDS011;69573;45.560;10.200;2023-05-14T11:32:08;1.50;;;1.40;;
80270;SDS011;69573;45.560;10.200;2023-05-14T11:34:35;2.40;;;1.50;;
80270;SDS011;69573;45.560;10.200;2023-05-14T11:37:05;1.88;;;1.23;;
80270;SDS011;69573;45.560;10.200;2023-05-14T11:39:31;3.83;;;1.20;;
80270;SDS011;69573;45.560;10.200;2023-05-14T11:42:19;1.83;;;1.67;;
80270;SDS011;69573;45.560;10.200;2023-05-14T11:44:47;2.95;;;1.70;;
80270;SDS011;69573;45.560;10.200;2023-05-14T11:47:15;1.45;;;1.40;;
80270;SDS011;69573;45.560;10.200;2023-05-14T11:49:42;1.50;;;1.40;;
80270;SDS011;69573;45.560;10.200;2023-05-14T11:52:09;1.63;;;1.48;;
80270;SDS011;69573;45.560;10.200;2023-05-14T11:54:36;1.67;;;1.52;;
80270;SDS011;69573;45.560;10.200;2023-05-14T11:57:07;2.75;;;2.55;;
80270;SDS011;69573;45.560;10.200;2023-05-14T11:59:33;3.92;;;3.40;;
80270;SDS011;69573;45.560;10.200;2023-05-14T12:02:00;4.38;;;3.97;;
80270;SDS011;69573;45.560;10.200;2023-05-14T12:04:27;3.83;;;3.53;;
80270;SDS011;69573;45.560;10.200;2023-05-14T12:06:56;3.63;;;3.33;;
80270;SDS011;69573;45.560;10.200;2023-05-14T12:09:23;3.58;;;3.28;;
80270;SDS011;69573;45.560;10.200;2023-05-14T12:11:50;3.10;;;2.90;;
80270;SDS011;69573;45.560;10.200;2023-05-14T12:14:21;3.55;;;3.22;;
80270;SDS011;69573;45.560;10.200;2023-05-14T12:16:47;5.63;;;3.10;;
80270;SDS011;69573;45.560;10.200;2023-05-14T12:19:14;3.00;;;2.80;;
80270;SDS011;69573;45.560;10.200;2023-05-14T12:21:44;2.78;;;2.58;;
80270;SDS011;69573;45.560;10.200;2023-05-14T12:24:12;4.15;;;3.30;;
80270;SDS011;69573;45.560;10.200;2023-05-14T12:26:39;5.95;;;3.42;;
80270;SDS011;69573;45.560;10.200;2023-05-14T12:29:10;3.08;;;2.78;;
80270;SDS011;69573;45.560;10.200;2023-05-14T12:31:37;2.85;;;2.65;;
80270;SDS011;69573;45.560;10.200;2023-05-14T12:34:09;3.05;;;2.85;;
80270;SDS011;69573;45.560;10.200;2023-05-14T12:36:36;3.30;;;2.97;;
80270;SDS011;69573;45.560;10.200;2023-05-14T12:39:03;3.13;;;2.83;;
80270;SDS011;69573;45.560;10.200;2023-05-14T12:41:30;3.28;;;2.97;;
80270;SDS011;69573;45.560;10.200;2023-05-14T12:43:56;3.22;;;3.00;;
80270;SDS011;69573;45.560;10.200;2023-05-14T12:46:23;2.78;;;2.58;;
80270;SDS011;69573;45.560;10.200;2023-05-14T12:48:50;2.67;;;2.47;;
80270;SDS011;69573;45.560;10.200;2023-05-14T12:51:21;2.50;;;2.30;;
80270;SDS011;69573;45.560;10.200;2023-05-14T12:53:48;3.10;;;2.80;;
80270;SDS011;69573;45.560;10.200;2023-05-14T12:56:16;5.55;;;3.30;;
80270;SDS011;69573;45.560;10.200;2023-05-14T12:58:52;2.80;;;2.60;;
80270;SDS011;69573;45.560;10.200;2023-05-14T13:01:18;3.58;;;3.28;;
80270;SDS011;69573;45.560;10.200;2023-05-14T13:03:45;3.22;;;2.88;;
80270;SDS011;69573;45.560;10.200;2023-05-14T13:06:11;3.97;;;3.67;;
80270;SDS011;69573;45.560;10.200;2023-05-14T13:08:38;3.95;;;3.53;;
80270;SDS011;69573;45.560;10.200;2023-05-14T13:11:04;4.30;;;3.80;;
80270;SDS011;69573;45.560;10.200;2023-05-14T13:13:30;4.30;;;3.90;;
80270;SDS011;69573;45.560;10.200;2023-05-14T13:15:57;6.13;;;4.18;;
80270;SDS011;69573;45.560;10.200;2023-05-14T13:18:23;5.85;;;4.90;;
80270;SDS011;69573;45.560;10.200;2023-05-14T13:20:50;6.50;;;5.10;;
80270;SDS011;69573;45.560;10.200;2023-05-14T13:23:16;5.72;;;5.07;;
80270;SDS011;69573;45.560;10.200;2023-05-14T13:25:43;5.88;;;5.20;;
80270;SDS011;69573;45.560;10.200;2023-05-14T13:28:09;5.72;;;5.22;;
80270;SDS011;69573;45.560;10.200;2023-05-14T13:30:35;6.53;;;5.85;;
80270;SDS011;69573;45.560;10.200;2023-05-14T13:33:02;6.45;;;5.32;;
80270;SDS011;69573;45.560;10.200;2023-05-14T13:35:28;7.03;;;5.85;;
80270;SDS011;69573;45.560;10.200;2023-05-14T13:38:03;7.22;;;5.97;;
80270;SDS011;69573;45.560;10.200;2023-05-14T13:40:32;7.28;;;6.20;;
80270;SDS011;69573;45.560;10.200;2023-05-14T13:42:59;8.48;;;7.60;;
80270;SDS011;69573;45.560;10.200;2023-05-14T13:45:25;7.45;;;6.85;;
80270;SDS011;69573;45.560;10.200;2023-05-14T13:47:52;8.18;;;7.38;;
80270;SDS011;69573;45.560;10.200;2023-05-14T13:50:20;7.70;;;6.93;;
80270;SDS011;69573;45.560;10.200;2023-05-14T13:52:46;7.68;;;7.03;;
80270;SDS011;69573;45.560;10.200;2023-05-14T13:55:12;7.25;;;6.65;;
80270;SDS011;69573;45.560;10.200;2023-05-14T13:57:39;6.80;;;6.20;;
80270;SDS011;69573;45.560;10.200;2023-05-14T14:00:07;6.53;;;5.93;;
80270;SDS011;69573;45.560;10.200;2023-05-14T14:02:33;7.10;;;5.72;;
80270;SDS011;69573;45.560;10.200;2023-05-14T14:05:00;6.93;;;5.68;;
80270;SDS011;69573;45.560;10.200;2023-05-14T14:07:26;6.85;;;6.25;;
80270;SDS011;69573;45.560;10.200;2023-05-14T14:09:53;7.15;;;6.35;;
80270;SDS011;69573;45.560;10.200;2023-05-14T14:12:19;8.15;;;5.20;;
80270;SDS011;69573;45.560;10.200;2023-05-14T14:14:46;7.40;;;6.18;;
80270;SDS011;69573;45.560;10.200;2023-05-14T14:17:12;7.15;;;6.45;;
80270;SDS011;69573;45.560;10.200;2023-05-14T14:19:39;6.55;;;6.00;;
80270;SDS011;69573;45.560;10.200;2023-05-14T14:22:05;7.90;;;5.72;;
80270;SDS011;69573;45.560;10.200;2023-05-14T14:24:31;6.90;;;6.13;;
80270;SDS011;69573;45.560;10.200;2023-05-14T14:26:57;7.00;;;6.30;;
80270;SDS011;69573;45.560;10.200;2023-05-14T14:29:23;6.30;;;5.70;;
80270;SDS011;69573;45.560;10.200;2023-05-14T14:31:49;7.05;;;5.80;;
80270;SDS011;69573;45.560;10.200;2023-05-14T14:34:16;6.00;;;5.45;;
80270;SDS011;69573;45.560;10.200;2023-05-14T14:36:42;6.32;;;5.68;;
80270;SDS011;69573;45.560;10.200;2023-05-14T14:39:08;5.72;;;5.13;;
80270;SDS011;69573;45.560;10.200;2023-05-14T14:41:35;5.38;;;4.88;;
80270;SDS011;69573;45.560;10.200;2023-05-14T14:44:01;5.47;;;5.03;;
80270;SDS011;69573;45.560;10.200;2023-05-14T14:46:27;5.53;;;5.13;;
80270;SDS011;69573;45.560;10.200;2023-05-14T14:48:53;5.75;;;5.32;;